Time;durP1;ratioP1;P1;durP2;ratioP2;P2;SDS_P1;SDS_P2;PMS_P1;PMS_P2;Temp;Humidity;BMP_temperature;BMP_pressure;BME280_temperature;BME280_humidity;BME280_pressure;Samples;Min_cycle;Max_cycle;Signal;HPM_P1;HPM_P2
2022/07/30 00:01:50;;;;;;;5.25;4.50;;;18.10;99.90;;;;;;5108736;28;20027;-34
2022/07/30 00:04:16;;;;;;;10.57;5.20;;;18.00;99.90;;;;;;5107826;28;20043;-34
2022/07/30 00:06:42;;;;;;;4.75;3.75;;;17.90;99.90;;;;;;5107756;28;20032;-33
2022/07/30 00:09:08;;;;;;;7.63;4.70;;;17.90;99.90;;;;;;5107733;28;20425;-34
2022/07/30 00:11:34;;;;;;;5.55;4.30;;;17.90;99.90;;;;;;5107604;28;20547;-34
2022/07/30 00:14:00;;;;;;;5.75;4.20;;;17.80;99.90;;;;;;5107485;28;20197;-34
2022/07/30 00:16:25;;;;;;;7.35;4.30;;;17.90;99.90;;;;;;5107345;28;20034;-34
2022/07/30 00:18:51;;;;;;;5.85;3.90;;;17.90;99.90;;;;;;5106561;28;20036;-35
2022/07/30 00:21:17;;;;;;;6.35;3.80;;;17.90;99.90;;;;;;5107882;28;20030;-35
2022/07/30 00:23:42;;;;;;;6.55;5.22;;;17.90;99.90;;;;;;5107905;28;20497;-35
2022/07/30 00:26:08;;;;;;;8.05;5.95;;;17.90;99.90;;;;;;5106581;28;20052;-34
2022/07/30 00:28:33;;;;;;;10.57;6.30;;;17.80;99.90;;;;;;5106727;28;20050;-34
2022/07/30 00:31:00;;;;;;;9.30;5.38;;;17.80;99.90;;;;;;5106869;28;20498;-35
2022/07/30 00:33:25;;;;;;;6.40;4.78;;;17.70;99.90;;;;;;5106772;28;20111;-35
2022/07/30 00:35:51;;;;;;;6.28;4.40;;;17.70;99.90;;;;;;5107554;28;20043;-34
2022/07/30 00:38:16;;;;;;;6.05;4.30;;;17.70;99.90;;;;;;5107228;28;20489;-35
2022/07/30 00:40:42;;;;;;;7.28;4.72;;;17.70;99.90;;;;;;5106611;28;20027;-34
2022/07/30 00:43:07;;;;;;;5.47;3.88;;;17.70;99.90;;;;;;5106991;28;20055;-33
2022/07/30 00:45:34;;;;;;;9.00;5.32;;;17.70;99.90;;;;;;5106523;28;20442;-34
2022/07/30 00:48:00;;;;;;;10.07;4.70;;;17.70;99.90;;;;;;5106478;28;20080;-34
2022/07/30 00:50:26;;;;;;;9.38;5.30;;;17.60;99.90;;;;;;5106284;28;20118;-34
2022/07/30 00:52:51;;;;;;;7.25;4.70;;;17.70;99.90;;;;;;5106292;28;20042;-34
2022/07/30 00:55:17;;;;;;;5.35;4.25;;;17.70;99.90;;;;;;5106860;28;20027;-34
2022/07/30 00:57:44;;;;;;;7.57;4.75;;;17.70;99.90;;;;;;5106339;28;20106;-34
2022/07/30 01:00:13;;;;;;;7.10;4.97;;;17.70;99.90;;;;;;5106055;28;20034;-34
2022/07/30 01:02:38;;;;;;;8.32;4.95;;;17.70;99.90;;;;;;5107041;28;20496;-34
2022/07/30 01:05:05;;;;;;;5.93;4.53;;;17.60;99.90;;;;;;5106628;28;20498;-34
2022/07/30 01:07:30;;;;;;;7.43;5.75;;;17.60;99.90;;;;;;5105358;28;20020;-34
2022/07/30 01:09:56;;;;;;;5.93;5.18;;;17.60;99.90;;;;;;5106790;28;20494;-34
2022/07/30 01:12:25;;;;;;;7.38;5.50;;;17.50;99.90;;;;;;5106846;28;20367;-34
2022/07/30 01:14:52;;;;;;;7.95;5.38;;;17.50;99.90;;;;;;5105999;28;20119;-34
2022/07/30 01:17:18;;;;;;;9.77;5.07;;;17.40;99.90;;;;;;5106568;28;20038;-36
2022/07/30 01:19:50;;;;;;;7.00;4.82;;;17.40;99.90;;;;;;5106006;28;20470;-34
2022/07/30 01:22:25;;;;;;;3.78;3.15;;;17.40;99.90;;;;;;5105809;28;20020;-34
2022/07/30 01:25:14;;;;;;;4.70;3.22;;;17.40;99.90;;;;;;5105969;28;20473;-34
2022/07/30 01:28:04;;;;;;;8.25;4.78;;;17.40;99.90;;;;;;5105484;28;20019;-35
2022/07/30 01:30:34;;;;;;;5.93;4.22;;;17.40;99.90;;;;;;5105977;28;20038;-34
2022/07/30 01:33:01;;;;;;;5.45;3.92;;;17.40;99.90;;;;;;5105695;28;20076;-34
2022/07/30 01:35:29;;;;;;;7.72;4.32;;;17.40;99.90;;;;;;5103806;28;20023;-34
2022/07/30 01:37:56;;;;;;;6.53;4.07;;;17.40;99.90;;;;;;5094224;28;20027;-34
2022/07/30 01:40:23;;;;;;;5.55;4.10;;;17.40;99.90;;;;;;5091985;28;20032;-34
2022/07/30 01:42:53;;;;;;;6.70;3.88;;;17.40;99.90;;;;;;5105475;28;20016;-34
2022/07/30 01:45:22;;;;;;;4.13;3.30;;;17.50;99.90;;;;;;5105390;28;20016;-34
2022/07/30 01:47:48;;;;;;;4.43;4.03;;;17.40;99.90;;;;;;5105583;28;20019;-35
2022/07/30 01:50:15;;;;;;;6.45;4.40;;;17.40;99.90;;;;;;5105382;28;20044;-34
2022/07/30 01:52:43;;;;;;;6.18;4.03;;;17.40;99.90;;;;;;5105545;28;20019;-33
2022/07/30 01:55:13;;;;;;;4.05;3.35;;;17.40;99.90;;;;;;5106092;28;20096;-34
2022/07/30 01:57:39;;;;;;;6.20;4.35;;;17.40;99.90;;;;;;5104851;28;20388;-34
2022/07/30 02:00:06;;;;;;;7.07;4.22;;;17.40;99.90;;;;;;5105980;28;20031;-35
2022/07/30 02:02:34;;;;;;;8.25;4.50;;;17.40;99.90;;;;;;5105249;28;20020;-34
2022/07/30 02:05:00;;;;;;;5.57;4.03;;;17.40;99.90;;;;;;5105380;28;20020;-34
2022/07/30 02:07:41;;;;;;;7.35;4.63;;;17.50;99.90;;;;;;5105097;28;20042;-34
2022/07/30 02:10:14;;;;;;;6.60;4.63;;;17.50;99.90;;;;;;5084229;28;20108;-35
2022/07/30 02:12:50;;;;;;;6.55;4.50;;;17.50;99.90;;;;;;5101446;28;20122;-35
2022/07/30 02:15:29;;;;;;;5.38;4.53;;;17.50;99.90;;;;;;5106292;28;20030;-35
2022/07/30 02:18:02;;;;;;;5.50;4.70;;;17.50;99.90;;;;;;5104259;28;20144;-35
2022/07/30 02:20:30;;;;;;;9.38;5.30;;;17.40;99.90;;;;;;5105273;28;20451;-34
2022/07/30 02:23:01;;;;;;;7.10;4.70;;;17.40;99.90;;;;;;5105009;28;20194;-34
2022/07/30 02:25:28;;;;;;;7.72;4.78;;;17.40;99.90;;;;;;5084439;28;20043;-35
2022/07/30 02:27:59;;;;;;;6.57;4.55;;;17.40;99.90;;;;;;5099595;28;20023;-34
2022/07/30 02:30:29;;;;;;;5.78;4.80;;;17.40;99.90;;;;;;5105044;28;20040;-36
2022/07/30 02:33:01;;;;;;;6.82;4.82;;;17.30;99.90;;;;;;5105129;28;20101;-34
2022/07/30 02:35:30;;;;;;;5.38;4.85;;;17.30;99.90;;;;;;5105212;28;20519;-33
2022/07/30 02:37:58;;;;;;;5.95;5.32;;;17.30;99.90;;;;;;5105471;28;20015;-35
2022/07/30 02:40:24;;;;;;;5.80;4.75;;;17.30;99.90;;;;;;5108572;28;20058;-35
2022/07/30 02:42:51;;;;;;;6.82;4.78;;;17.30;99.90;;;;;;5109201;28;20047;-36
2022/07/30 02:45:18;;;;;;;6.70;5.00;;;17.30;99.90;;;;;;5108526;28;20034;-34
2022/07/30 02:47:53;;;;;;;9.45;6.65;;;17.20;99.90;;;;;;5108786;28;20599;-34
2022/07/30 02:50:20;;;;;;;6.80;5.55;;;17.20;99.90;;;;;;5109093;28;20032;-34
2022/07/30 02:52:48;;;;;;;13.15;8.00;;;17.30;99.90;;;;;;5107823;28;20031;-33
2022/07/30 02:55:16;;;;;;;9.93;8.25;;;17.30;99.90;;;;;;5109611;28;20067;-34
2022/07/30 02:57:43;;;;;;;11.35;7.85;;;17.20;99.90;;;;;;5108293;28;20353;-34
2022/07/30 03:00:10;;;;;;;13.57;9.60;;;17.20;99.90;;;;;;5108563;28;20031;-35
2022/07/30 03:02:37;;;;;;;11.10;8.98;;;17.20;99.90;;;;;;5108729;28;20034;-35
2022/07/30 03:05:05;;;;;;;9.77;7.45;;;17.10;99.90;;;;;;5109166;28;20218;-34
2022/07/30 03:07:33;;;;;;;12.50;8.65;;;17.10;99.90;;;;;;5108007;28;20039;-34
2022/07/30 03:09:59;;;;;;;10.63;7.97;;;17.10;99.90;;;;;;5107834;28;20028;-34
2022/07/30 03:12:27;;;;;;;10.38;9.38;;;17.10;99.90;;;;;;5108873;28;20023;-34
2022/07/30 03:14:53;;;;;;;11.90;9.73;;;17.00;99.90;;;;;;5107901;28;20024;-34
2022/07/30 03:17:21;;;;;;;8.95;8.05;;;17.00;99.90;;;;;;5108918;28;20666;-35
2022/07/30 03:19:48;;;;;;;11.93;10.38;;;16.90;99.90;;;;;;5108441;28;20028;-36
2022/07/30 03:22:16;;;;;;;12.32;8.32;;;16.90;99.90;;;;;;5107845;28;20358;-33
2022/07/30 03:24:44;;;;;;;8.73;7.85;;;16.80;99.90;;;;;;5107751;28;20099;-33
2022/07/30 03:27:12;;;;;;;9.70;8.40;;;16.90;99.90;;;;;;5108949;28;20073;-35
2022/07/30 03:29:38;;;;;;;10.80;9.68;;;16.90;99.90;;;;;;5107656;28;20035;-35
2022/07/30 03:32:05;;;;;;;15.05;10.80;;;16.90;99.90;;;;;;5109072;28;20051;-35
2022/07/30 03:34:34;;;;;;;11.05;8.95;;;16.90;99.90;;;;;;5107695;28;20083;-34
2022/07/30 03:37:03;;;;;;;11.57;8.88;;;16.80;99.90;;;;;;5108721;28;20030;-34
2022/07/30 03:39:32;;;;;;;12.65;10.80;;;16.80;99.90;;;;;;5107654;28;20546;-35
2022/07/30 03:41:58;;;;;;;12.63;9.20;;;16.80;99.90;;;;;;5107779;28;20489;-34
2022/07/30 03:44:24;;;;;;;11.15;9.88;;;16.80;99.90;;;;;;5108060;28;20028;-34
2022/07/30 03:46:52;;;;;;;13.20;9.75;;;16.80;99.90;;;;;;5107890;28;20358;-35
2022/07/30 03:49:17;;;;;;;8.45;7.13;;;16.80;99.90;;;;;;5108189;28;20036;-35
2022/07/30 03:51:45;;;;;;;10.48;9.40;;;16.90;99.90;;;;;;5106813;28;20023;-34
2022/07/30 03:54:11;;;;;;;9.73;8.07;;;16.90;99.90;;;;;;5108586;28;20043;-35
2022/07/30 03:56:37;;;;;;;10.40;8.77;;;16.90;99.90;;;;;;5106851;28;20020;-35
2022/07/30 03:59:03;;;;;;;8.68;7.78;;;16.90;99.90;;;;;;5108133;28;20031;-34
2022/07/30 04:01:29;;;;;;;8.43;7.60;;;17.00;99.90;;;;;;5107257;28;20115;-34
2022/07/30 04:03:55;;;;;;;9.60;6.85;;;17.00;99.90;;;;;;5107605;28;20102;-35
2022/07/30 04:06:20;;;;;;;8.38;7.15;;;17.00;99.90;;;;;;5107506;28;20723;-34
2022/07/30 04:08:46;;;;;;;7.93;5.95;;;17.10;99.90;;;;;;5107203;28;20020;-34
2022/07/30 04:11:11;;;;;;;7.72;6.35;;;17.20;99.90;;;;;;5107192;28;20039;-34
2022/07/30 04:13:37;;;;;;;8.57;6.03;;;17.20;99.90;;;;;;5107851;28;20886;-33
2022/07/30 04:16:15;;;;;;;8.93;7.45;;;17.20;99.90;;;;;;5107626;28;20110;-34
2022/07/30 04:18:46;;;;;;;8.60;7.60;;;17.20;99.90;;;;;;5106499;28;20019;-34
2022/07/30 04:21:16;;;;;;;7.70;6.90;;;17.20;99.90;;;;;;5107907;28;20023;-34
2022/07/30 04:23:43;;;;;;;11.13;8.00;;;17.20;99.90;;;;;;5106529;28;20039;-34
2022/07/30 04:26:10;;;;;;;8.38;7.53;;;17.10;99.90;;;;;;5107373;28;20044;-34
2022/07/30 04:28:36;;;;;;;8.73;6.53;;;17.10;99.90;;;;;;5107324;28;20039;-35
2022/07/30 04:31:03;;;;;;;7.90;6.88;;;17.10;99.90;;;;;;5106247;28;20028;-34
2022/07/30 04:33:29;;;;;;;8.18;5.47;;;17.10;99.90;;;;;;5107287;28;20103;-34
2022/07/30 04:35:54;;;;;;;6.35;5.38;;;17.00;99.90;;;;;;5107388;28;20102;-34
2022/07/30 04:38:20;;;;;;;7.05;6.13;;;17.10;99.90;;;;;;5107040;28;20829;-34
2022/07/30 04:40:47;;;;;;;9.10;6.30;;;17.00;99.90;;;;;;5106826;28;20024;-34
2022/07/30 04:43:13;;;;;;;5.30;4.53;;;17.10;99.90;;;;;;5107690;28;20341;-35
2022/07/30 04:45:39;;;;;;;7.93;5.20;;;17.10;99.90;;;;;;5106612;28;20387;-35
2022/07/30 04:48:05;;;;;;;6.03;5.43;;;17.10;99.90;;;;;;5106550;28;20024;-34
2022/07/30 04:50:33;;;;;;;8.50;5.72;;;17.10;99.90;;;;;;5107528;28;20040;-34
2022/07/30 04:53:00;;;;;;;8.45;5.57;;;17.10;99.90;;;;;;5107325;28;20016;-34
2022/07/30 04:55:26;;;;;;;7.32;5.13;;;17.10;99.90;;;;;;5107260;28;20020;-34
2022/07/30 04:57:52;;;;;;;5.30;4.78;;;17.10;99.90;;;;;;5106587;28;20031;-33
2022/07/30 05:00:18;;;;;;;4.20;3.80;;;17.10;99.90;;;;;;5106216;28;20027;-34
2022/07/30 05:02:46;;;;;;;5.55;4.05;;;17.10;99.90;;;;;;5105849;28;20502;-34
2022/07/30 05:05:13;;;;;;;7.85;4.45;;;17.10;99.90;;;;;;5107281;28;20034;-34
2022/07/30 05:07:39;;;;;;;7.72;5.13;;;17.10;99.90;;;;;;5106095;28;20137;-35
2022/07/30 05:10:06;;;;;;;4.28;3.88;;;17.10;99.90;;;;;;5106476;28;20169;-34
2022/07/30 05:12:33;;;;;;;7.15;4.55;;;17.00;99.90;;;;;;5105718;28;20172;-34
2022/07/30 05:14:58;;;;;;;6.13;4.07;;;17.00;99.90;;;;;;5106000;28;20387;-34
2022/07/30 05:17:24;;;;;;;6.00;5.38;;;17.10;99.90;;;;;;5106532;28;20055;-34
2022/07/30 05:19:49;;;;;;;8.18;5.43;;;17.10;99.90;;;;;;5106438;28;20027;-34
2022/07/30 05:22:15;;;;;;;8.25;5.00;;;17.10;99.90;;;;;;5105997;28;20536;-33
2022/07/30 05:24:40;;;;;;;5.00;3.75;;;17.10;99.90;;;;;;5105969;28;20027;-34
2022/07/30 05:27:06;;;;;;;4.72;4.25;;;17.10;99.90;;;;;;5105782;28;20039;-33
2022/07/30 05:29:32;;;;;;;6.80;4.20;;;17.10;99.90;;;;;;5106158;28;20074;-33
2022/07/30 05:31:57;;;;;;;5.35;3.67;;;17.10;99.90;;;;;;5106390;28;20019;-34
2022/07/30 05:34:23;;;;;;;4.60;4.00;;;17.10;99.90;;;;;;5105622;28;20027;-34
2022/07/30 05:36:49;;;;;;;5.32;3.60;;;17.10;99.90;;;;;;5106318;28;20012;-35
2022/07/30 05:39:15;;;;;;;5.75;4.03;;;17.10;99.90;;;;;;5106304;28;20051;-33
2022/07/30 05:41:41;;;;;;;6.45;4.05;;;17.10;99.90;;;;;;5105337;28;20074;-36
2022/07/30 05:44:06;;;;;;;6.95;4.40;;;17.20;99.90;;;;;;5106170;28;20023;-35
2022/07/30 05:46:32;;;;;;;4.80;4.03;;;17.20;99.90;;;;;;5105501;28;20027;-34
2022/07/30 05:48:58;;;;;;;5.78;4.20;;;17.20;99.90;;;;;;5104538;28;20016;-33
2022/07/30 05:51:23;;;;;;;7.70;4.30;;;17.20;99.90;;;;;;5105967;28;20034;-33
2022/07/30 05:53:49;;;;;;;5.80;3.97;;;17.20;99.90;;;;;;5105731;28;20426;-34
2022/07/30 05:56:14;;;;;;;6.22;4.25;;;17.30;99.90;;;;;;5104811;28;20036;-35
2022/07/30 05:58:40;;;;;;;4.50;3.85;;;17.30;99.90;;;;;;5105348;28;20483;-34
2022/07/30 06:01:06;;;;;;;5.28;3.83;;;17.30;99.90;;;;;;5105208;28;20027;-35
2022/07/30 06:03:33;;;;;;;4.43;3.30;;;17.40;99.90;;;;;;5105179;28;20022;-34
2022/07/30 06:05:58;;;;;;;3.92;2.90;;;17.40;99.90;;;;;;5105573;28;20055;-35
2022/07/30 06:08:24;;;;;;;5.35;3.10;;;17.40;99.90;;;;;;5105513;28;20514;-35
2022/07/30 06:10:49;;;;;;;6.82;4.40;;;17.50;99.90;;;;;;5104472;28;20055;-34
2022/07/30 06:13:15;;;;;;;6.38;4.80;;;17.40;99.90;;;;;;5104760;28;20020;-34
2022/07/30 06:15:40;;;;;;;6.07;4.32;;;17.50;99.90;;;;;;5105075;28;20024;-33
2022/07/30 06:18:06;;;;;;;4.82;4.32;;;17.50;99.90;;;;;;5105345;28;20027;-34
2022/07/30 06:20:31;;;;;;;5.57;4.40;;;17.50;99.90;;;;;;5105293;28;20401;-35
2022/07/30 06:22:57;;;;;;;5.65;4.18;;;17.50;99.90;;;;;;5105015;28;20023;-34
2022/07/30 06:25:22;;;;;;;4.25;3.38;;;17.50;99.90;;;;;;5104066;28;20043;-34
2022/07/30 06:27:48;;;;;;;5.40;3.30;;;17.50;99.90;;;;;;5101509;28;20585;-34
2022/07/30 06:30:13;;;;;;;5.53;4.30;;;17.60;99.90;;;;;;5103512;28;20031;-35
2022/07/30 06:32:39;;;;;;;4.35;3.50;;;17.60;99.90;;;;;;5103591;28;20027;-35
2022/07/30 06:35:05;;;;;;;7.70;4.18;;;17.70;99.90;;;;;;5104661;28;20022;-34
2022/07/30 06:37:31;;;;;;;6.13;3.90;;;17.80;99.90;;;;;;5103311;28;20046;-34
2022/07/30 06:39:56;;;;;;;5.18;3.38;;;17.80;99.90;;;;;;5103978;28;20020;-33
2022/07/30 06:42:22;;;;;;;5.68;3.72;;;17.90;99.90;;;;;;5105199;28;20480;-34
2022/07/30 06:44:47;;;;;;;9.07;3.97;;;17.90;99.90;;;;;;5102578;28;20437;-34
2022/07/30 06:47:19;;;;;;;6.25;3.60;;;18.00;99.90;;;;;;5105104;28;20081;-35
2022/07/30 06:49:44;;;;;;;5.53;3.33;;;18.00;99.90;;;;;;5103403;28;20032;-34
2022/07/30 06:52:10;;;;;;;6.13;3.00;;;18.10;99.90;;;;;;5103595;28;20109;-34
2022/07/30 06:54:35;;;;;;;3.03;2.65;;;18.10;99.90;;;;;;5104394;28;20024;-34
2022/07/30 06:57:01;;;;;;;4.38;2.85;;;18.10;99.90;;;;;;5104582;28;20092;-35
2022/07/30 06:59:27;;;;;;;6.28;3.45;;;18.20;99.90;;;;;;5103724;28;20131;-35
2022/07/30 07:01:53;;;;;;;3.65;2.58;;;18.20;99.90;;;;;;5104633;28;20036;-34
2022/07/30 07:04:18;;;;;;;4.32;2.40;;;18.30;99.90;;;;;;5104766;28;20515;-35
2022/07/30 07:06:44;;;;;;;4.78;2.45;;;18.30;99.90;;;;;;5103028;28;20471;-33
2022/07/30 07:09:09;;;;;;;4.45;2.90;;;18.40;99.90;;;;;;5104012;28;20027;-35
2022/07/30 07:11:35;;;;;;;3.80;2.90;;;18.50;99.90;;;;;;5103513;28;20055;-34
2022/07/30 07:14:00;;;;;;;5.82;3.67;;;18.50;99.90;;;;;;5103533;28;20577;-34
2022/07/30 07:16:26;;;;;;;5.18;3.63;;;18.60;99.90;;;;;;5103986;28;20036;-34
2022/07/30 07:18:53;;;;;;;4.18;3.08;;;18.60;99.90;;;;;;5103385;28;20350;-34
2022/07/30 07:21:19;;;;;;;6.00;3.38;;;18.70;99.90;;;;;;5103956;28;20114;-34
2022/07/30 07:23:47;;;;;;;3.70;2.72;;;18.70;99.90;;;;;;5103894;28;20514;-34
2022/07/30 07:26:13;;;;;;;3.72;2.97;;;18.70;99.90;;;;;;5106053;28;20040;-34
2022/07/30 07:28:39;;;;;;;4.85;2.83;;;18.70;99.90;;;;;;5108227;28;20024;-34
2022/07/30 07:31:05;;;;;;;4.32;3.25;;;18.80;99.90;;;;;;5108708;28;20490;-34
2022/07/30 07:33:30;;;;;;;3.47;3.03;;;18.80;99.90;;;;;;5108149;28;20470;-34
2022/07/30 07:35:56;;;;;;;5.28;3.10;;;18.90;99.90;;;;;;5108042;28;20383;-35
2022/07/30 07:38:21;;;;;;;3.63;2.75;;;18.80;99.90;;;;;;5108106;28;20020;-34
2022/07/30 07:40:47;;;;;;;2.70;2.30;;;18.80;99.90;;;;;;5107310;28;20032;-35
2022/07/30 07:43:13;;;;;;;6.43;3.17;;;18.90;99.90;;;;;;5109053;28;20016;-34
2022/07/30 07:45:40;;;;;;;4.30;3.17;;;18.90;99.90;;;;;;5108595;28;20386;-34
2022/07/30 07:48:06;;;;;;;4.47;3.53;;;19.00;99.90;;;;;;5107514;27;20387;-35
2022/07/30 07:50:32;;;;;;;4.30;3.55;;;19.10;99.90;;;;;;5107398;28;20051;-35
2022/07/30 07:52:57;;;;;;;4.75;2.90;;;19.10;99.90;;;;;;5108384;28;20022;-35
2022/07/30 07:55:23;;;;;;;3.70;2.45;;;19.20;99.90;;;;;;5104870;28;20364;-35
2022/07/30 07:57:48;;;;;;;5.05;2.75;;;19.30;99.90;;;;;;5107172;28;20027;-35
2022/07/30 08:00:14;;;;;;;3.80;2.40;;;19.30;99.90;;;;;;5108483;28;20108;-35
2022/07/30 08:02:41;;;;;;;4.65;2.97;;;19.30;99.90;;;;;;5106776;28;20371;-35
2022/07/30 08:05:09;;;;;;;3.15;2.10;;;19.30;99.90;;;;;;5107428;28;20278;-34
2022/07/30 08:07:35;;;;;;;5.30;3.67;;;19.40;99.90;;;;;;5107320;28;20311;-34
2022/07/30 08:10:01;;;;;;;5.03;3.08;;;19.40;99.90;;;;;;5106233;28;20471;-34
2022/07/30 08:12:26;;;;;;;5.20;2.95;;;19.40;99.90;;;;;;5107810;28;20022;-34
2022/07/30 08:14:52;;;;;;;5.88;3.08;;;19.30;99.90;;;;;;5107103;28;20028;-35
2022/07/30 08:17:18;;;;;;;3.40;2.08;;;19.30;99.90;;;;;;5106779;28;20122;-35
2022/07/30 08:19:44;;;;;;;5.57;2.40;;;19.30;99.90;;;;;;5106703;28;20111;-35
2022/07/30 08:22:10;;;;;;;3.25;2.30;;;19.50;99.90;;;;;;5106476;28;20027;-35
2022/07/30 08:24:35;;;;;;;3.95;2.85;;;19.50;99.90;;;;;;5105476;28;20035;-34
2022/07/30 08:27:01;;;;;;;4.20;2.50;;;19.50;99.90;;;;;;5106643;28;20047;-34
2022/07/30 08:29:26;;;;;;;5.63;3.25;;;19.60;99.90;;;;;;5106493;28;20199;-34
2022/07/30 08:31:52;;;;;;;4.88;3.20;;;19.50;99.90;;;;;;5106134;28;20027;-34
2022/07/30 08:34:19;;;;;;;3.05;2.50;;;19.50;99.90;;;;;;5107616;28;20028;-35
2022/07/30 08:36:44;;;;;;;2.65;1.83;;;19.60;99.90;;;;;;5105220;28;20036;-34
2022/07/30 08:39:10;;;;;;;2.75;2.08;;;19.60;99.90;;;;;;5105836;28;20072;-36
2022/07/30 08:41:36;;;;;;;4.18;2.35;;;19.70;99.90;;;;;;5106228;28;20605;-34
2022/07/30 08:44:02;;;;;;;5.03;2.80;;;19.70;99.90;;;;;;5105920;28;20498;-35
2022/07/30 08:46:32;;;;;;;4.25;1.98;;;19.70;99.60;;;;;;5105776;28;20036;-35
2022/07/30 08:48:58;;;;;;;2.85;1.70;;;19.80;99.90;;;;;;5106540;28;20059;-35
2022/07/30 08:51:23;;;;;;;3.13;1.92;;;19.80;99.90;;;;;;5106354;28;20101;-35
2022/07/30 08:53:49;;;;;;;2.65;1.80;;;19.80;99.90;;;;;;5106976;28;20023;-34
2022/07/30 08:56:15;;;;;;;4.00;2.50;;;19.90;99.90;;;;;;5106869;28;20076;-35
2022/07/30 08:58:41;;;;;;;4.35;2.13;;;19.80;99.30;;;;;;5105606;28;20024;-35
2022/07/30 09:01:07;;;;;;;4.50;2.00;;;19.80;99.40;;;;;;5106534;28;20138;-35
2022/07/30 09:03:36;;;;;;;5.03;2.13;;;19.90;99.60;;;;;;5105717;28;20039;-34
2022/07/30 09:06:03;;;;;;;3.67;2.20;;;19.90;99.60;;;;;;5105074;28;20028;-36
2022/07/30 09:08:29;;;;;;;4.05;1.75;;;19.90;99.60;;;;;;5106357;28;20017;-34
2022/07/30 09:10:55;;;;;;;2.50;1.88;;;20.00;99.70;;;;;;5106471;28;20023;-35
2022/07/30 09:13:30;;;;;;;3.05;1.88;;;20.00;99.70;;;;;;5106087;28;20219;-35
2022/07/30 09:15:56;;;;;;;2.33;1.75;;;20.10;98.20;;;;;;5105009;28;20520;-36
2022/07/30 09:18:33;;;;;;;4.15;1.50;;;20.20;98.30;;;;;;5106649;28;20019;-34
2022/07/30 09:21:00;;;;;;;4.55;1.73;;;20.20;98.20;;;;;;5105798;28;20657;-34
2022/07/30 09:23:26;;;;;;;2.35;1.60;;;20.30;98.30;;;;;;5104724;28;20015;-34
2022/07/30 09:25:51;;;;;;;1.65;1.33;;;20.30;98.40;;;;;;5105974;28;20117;-36
2022/07/30 09:28:27;;;;;;;2.65;1.80;;;20.30;98.40;;;;;;5105714;28;20048;-35
2022/07/30 09:30:54;;;;;;;1.83;1.30;;;20.40;98.40;;;;;;5106026;28;20031;-34
2022/07/30 09:33:32;;;;;;;3.03;1.50;;;20.50;98.50;;;;;;5105924;28;20024;-34
2022/07/30 09:35:58;;;;;;;1.83;1.20;;;20.50;98.30;;;;;;5105953;28;20383;-34
2022/07/30 09:38:25;;;;;;;2.70;1.60;;;20.60;98.10;;;;;;5106674;28;20020;-36
2022/07/30 09:40:52;;;;;;;3.83;1.70;;;20.70;97.80;;;;;;5105686;28;20028;-35
2022/07/30 09:43:17;;;;;;;1.50;1.40;;;20.70;97.70;;;;;;5107066;28;20020;-36
2022/07/30 09:45:59;;;;;;;3.88;1.60;;;20.70;97.60;;;;;;5106015;28;20468;-36
2022/07/30 09:48:27;;;;;;;2.57;1.50;;;20.80;97.50;;;;;;5103709;28;20103;-34
2022/07/30 09:50:53;;;;;;;3.13;1.45;;;20.80;97.50;;;;;;5106225;28;20297;-34
2022/07/30 09:53:22;;;;;;;3.03;1.60;;;20.80;97.30;;;;;;5106162;28;20478;-36
2022/07/30 09:55:48;;;;;;;2.95;1.40;;;20.90;96.50;;;;;;5104408;28;20023;-35
2022/07/30 09:58:14;;;;;;;3.28;1.33;;;20.90;96.40;;;;;;5105897;28;20030;-35
2022/07/30 10:00:40;;;;;;;2.83;1.55;;;20.90;96.30;;;;;;5105772;28;20034;-35
2022/07/30 10:03:18;;;;;;;1.90;1.30;;;21.00;96.30;;;;;;5104555;28;20120;-35
2022/07/30 10:06:13;;;;;;;2.05;1.30;;;21.00;96.30;;;;;;5104469;28;20038;-34
2022/07/30 10:08:50;;;;;;;1.15;1.00;;;21.00;96.20;;;;;;5082629;28;20059;-33
2022/07/30 10:11:19;;;;;;;1.52;1.25;;;21.10;96.00;;;;;;5105765;28;20040;-35
2022/07/30 10:13:47;;;;;;;3.50;1.40;;;21.10;96.00;;;;;;5104614;28;20499;-34
2022/07/30 10:16:12;;;;;;;3.47;1.42;;;21.20;96.10;;;;;;5105055;28;20028;-35
2022/07/30 10:18:41;;;;;;;2.20;1.20;;;21.30;96.20;;;;;;5105088;28;20400;-35
2022/07/30 10:21:07;;;;;;;2.50;1.20;;;21.40;96.10;;;;;;5105213;28;20028;-36
2022/07/30 10:23:34;;;;;;;1.48;1.10;;;21.40;95.70;;;;;;5104530;28;20024;-35
2022/07/30 10:26:01;;;;;;;2.83;1.33;;;21.40;95.40;;;;;;5105350;28;20047;-34
2022/07/30 10:28:28;;;;;;;2.63;1.40;;;21.50;95.00;;;;;;5104859;28;20011;-34
2022/07/30 10:30:56;;;;;;;1.60;1.45;;;21.60;94.80;;;;;;5104363;28;20046;-34
2022/07/30 10:33:26;;;;;;;2.03;1.23;;;21.60;94.20;;;;;;5105689;28;20486;-35
2022/07/30 10:35:52;;;;;;;2.33;1.20;;;21.60;94.40;;;;;;5104653;28;20055;-35
2022/07/30 10:38:21;;;;;;;1.13;1.00;;;21.60;94.20;;;;;;5104560;28;20490;-34
2022/07/30 10:40:49;;;;;;;3.17;1.20;;;21.60;93.30;;;;;;5105090;28;20036;-35
2022/07/30 10:43:39;;;;;;;1.13;1.00;;;21.70;92.30;;;;;;5105049;28;20073;-34
2022/07/30 10:46:50;;;;;;;1.90;1.30;;;21.70;92.60;;;;;;5095486;28;20035;-34
2022/07/30 10:49:16;;;;;;;1.85;1.35;;;21.70;92.00;;;;;;5002362;28;20054;-35
2022/07/30 10:51:44;;;;;;;1.92;1.45;;;21.80;92.10;;;;;;5001267;28;20045;-34
2022/07/30 10:54:37;;;;;;;1.88;1.40;;;21.90;92.20;;;;;;5050628;28;20163;-35
2022/07/30 10:57:10;;;;;;;1.17;1.05;;;21.90;92.30;;;;;;5104664;28;20773;-35
2022/07/30 10:59:54;;;;;;;2.28;1.08;;;21.90;92.40;;;;;;5105125;28;20063;-34
2022/07/30 11:02:21;;;;;;;2.00;1.20;;;22.00;92.30;;;;;;5109755;28;20110;-35
2022/07/30 11:04:47;;;;;;;4.18;1.05;;;22.20;92.30;;;;;;5107653;28;20039;-35
2022/07/30 11:07:22;;;;;;;3.08;1.45;;;22.20;92.10;;;;;;5109013;28;20035;-35
2022/07/30 11:09:49;;;;;;;1.95;1.42;;;22.30;91.90;;;;;;5108148;28;20035;-35
2022/07/30 11:12:34;;;;;;;1.70;1.30;;;22.30;91.80;;;;;;5108758;28;20067;-35
2022/07/30 11:15:00;;;;;;;3.13;1.90;;;22.30;91.60;;;;;;5108653;28;20031;-34
2022/07/30 11:17:45;;;;;;;2.58;1.35;;;22.40;91.40;;;;;;5103000;28;20390;-36
2022/07/30 11:20:11;;;;;;;1.83;1.35;;;22.40;91.50;;;;;;5107848;28;20027;-34
2022/07/30 11:22:43;;;;;;;3.35;1.42;;;22.50;91.60;;;;;;5108962;28;20085;-34
2022/07/30 11:25:29;;;;;;;2.30;1.33;;;22.50;91.40;;;;;;5109083;28;20044;-33
2022/07/30 11:27:55;;;;;;;2.85;1.23;;;22.50;90.50;;;;;;5107035;28;20027;-34
2022/07/30 11:30:21;;;;;;;1.88;1.17;;;22.60;90.80;;;;;;5107666;28;20466;-33
2022/07/30 11:33:09;;;;;;;2.58;1.00;;;22.70;90.90;;;;;;5107620;28;20031;-34
2022/07/30 11:35:34;;;;;;;1.80;1.27;;;22.70;91.00;;;;;;5105902;28;20114;-34
2022/07/30 11:38:01;;;;;;;1.42;1.20;;;22.80;91.00;;;;;;5107668;28;20115;-35
2022/07/30 11:40:31;;;;;;;1.48;1.13;;;22.90;91.00;;;;;;5107431;28;20080;-35
2022/07/30 11:43:23;;;;;;;1.25;1.15;;;23.00;90.90;;;;;;5108544;28;20111;-34
2022/07/30 11:46:11;;;;;;;2.35;1.60;;;23.00;90.90;;;;;;5107744;28;20454;-34
2022/07/30 11:48:40;;;;;;;2.05;1.40;;;23.10;90.70;;;;;;5084283;28;20486;-35
2022/07/30 11:51:07;;;;;;;5.03;1.38;;;23.20;90.80;;;;;;5107679;28;20089;-33
2022/07/30 11:53:33;;;;;;;3.33;1.35;;;23.30;90.80;;;;;;5108045;28;20031;-35
2022/07/30 11:56:00;;;;;;;3.97;1.48;;;23.40;90.90;;;;;;5105198;28;20032;-35
2022/07/30 11:58:27;;;;;;;2.40;1.30;;;23.40;90.60;;;;;;5108046;28;20518;-34
2022/07/30 12:00:55;;;;;;;2.80;1.60;;;23.50;90.60;;;;;;5107068;28;20059;-34
2022/07/30 12:03:23;;;;;;;5.00;1.90;;;23.70;90.40;;;;;;5108569;28;20095;-36
2022/07/30 12:05:50;;;;;;;2.25;1.40;;;23.70;88.80;;;;;;5107405;28;20464;-35
2022/07/30 12:08:15;;;;;;;3.03;1.15;;;23.80;89.20;;;;;;5107365;28;20019;-34
2022/07/30 12:10:42;;;;;;;2.15;1.52;;;23.90;89.70;;;;;;5107782;28;20028;-35
2022/07/30 12:13:15;;;;;;;1.55;1.42;;;24.10;89.80;;;;;;5106815;28;20012;-36
2022/07/30 12:15:47;;;;;;;1.20;1.10;;;24.10;89.70;;;;;;5107081;28;20028;-35
2022/07/30 12:18:22;;;;;;;1.20;1.10;;;24.20;89.90;;;;;;5108913;28;20026;-35
2022/07/30 12:21:03;;;;;;;2.78;1.20;;;24.30;90.00;;;;;;5107767;28;20028;-35
2022/07/30 12:23:30;;;;;;;1.25;1.10;;;24.40;89.40;;;;;;5106919;28;20027;-35
2022/07/30 12:25:56;;;;;;;2.08;1.30;;;24.50;88.90;;;;;;5104570;28;20055;-36
2022/07/30 12:28:24;;;;;;;2.13;1.23;;;24.50;87.90;;;;;;5107264;28;20023;-34
2022/07/30 12:30:53;;;;;;;1.17;0.90;;;24.50;88.10;;;;;;5106803;28;20043;-35
2022/07/30 12:33:19;;;;;;;3.83;1.30;;;24.60;87.60;;;;;;5107363;28;20023;-34
2022/07/30 12:35:50;;;;;;;2.58;1.20;;;24.60;86.10;;;;;;5107770;28;20023;-35
2022/07/30 12:38:17;;;;;;;2.35;1.20;;;24.60;85.70;;;;;;5107358;28;20023;-33
2022/07/30 12:41:02;;;;;;;1.88;1.20;;;24.60;85.90;;;;;;5107012;28;20216;-35
2022/07/30 12:43:54;;;;;;;2.83;1.60;;;24.60;86.10;;;;;;5106775;28;20055;-35
2022/07/30 12:46:22;;;;;;;2.47;1.52;;;24.70;83.30;;;;;;5099025;28;20414;-34
2022/07/30 12:48:49;;;;;;;2.15;1.42;;;24.80;83.40;;;;;;5106879;28;20467;-35
2022/07/30 12:51:15;;;;;;;2.30;1.50;;;24.80;83.90;;;;;;5106900;28;20320;-36